sensor_id;sensor_type;location;lat;lon;timestamp;P1;durP1;ratioP1;P2;durP2;ratioP2
50745;SDS011;36711;51.972;21.204;2023-05-07T01:12:39;3.10;;;2.50;;
50745;SDS011;36711;51.972;21.204;2023-05-07T01:15:08;4.50;;;2.70;;
50745;SDS011;36711;51.972;21.204;2023-05-07T01:17:40;3.40;;;2.70;;
50745;SDS011;36711;51.972;21.204;2023-05-07T01:20:09;3.50;;;2.60;;
50745;SDS011;36711;51.972;21.204;2023-05-07T01:22:42;3.10;;;2.40;;
50745;SDS011;36711;51.972;21.204;2023-05-07T01:25:11;2.40;;;2.10;;
50745;SDS011;36711;51.972;21.204;2023-05-07T01:27:40;6.00;;;2.10;;
50745;SDS011;36711;51.972;21.204;2023-05-07T01:30:09;2.40;;;1.80;;
50745;SDS011;36711;51.972;21.204;2023-05-07T01:32:47;1.50;;;1.40;;
50745;SDS011;36711;51.972;21.204;2023-05-07T01:35:20;2.30;;;1.30;;
50745;SDS011;36711;51.972;21.204;2023-05-07T01:37:50;1.40;;;1.10;;
50745;SDS011;36711;51.972;21.204;2023-05-07T01:40:19;1.90;;;1.10;;
50745;SDS011;36711;51.972;21.204;2023-05-07T01:42:49;2.50;;;1.20;;
50745;SDS011;36711;51.972;21.204;2023-05-07T01:45:17;1.70;;;1.20;;
50745;SDS011;36711;51.972;21.204;2023-05-07T01:47:46;1.30;;;1.10;;
50745;SDS011;36711;51.972;21.204;2023-05-07T01:50:15;3.30;;;1.30;;
50745;SDS011;36711;51.972;21.204;2023-05-07T01:52:45;1.40;;;0.90;;
50745;SDS011;36711;51.972;21.204;2023-05-07T01:55:14;2.00;;;1.20;;
50745;SDS011;36711;51.972;21.204;2023-05-07T01:57:43;1.20;;;1.00;;
50745;SDS011;36711;51.972;21.204;2023-05-07T02:00:12;1.70;;;1.00;;
50745;SDS011;36711;51.972;21.204;2023-05-07T02:02:41;1.90;;;1.00;;
50745;SDS011;36711;51.972;21.204;2023-05-07T02:05:10;1.20;;;1.10;;
50745;SDS011;36711;51.972;21.204;2023-05-07T02:07:39;1.70;;;1.00;;
50745;SDS011;36711;51.972;21.204;2023-05-07T02:10:07;1.20;;;1.10;;
50745;SDS011;36711;51.972;21.204;2023-05-07T02:12:37;0.90;;;0.80;;
50745;SDS011;36711;51.972;21.204;2023-05-07T02:15:06;1.60;;;0.90;;
50745;SDS011;36711;51.972;21.204;2023-05-07T02:17:38;2.40;;;1.00;;
50745;SDS011;36711;51.972;21.204;2023-05-07T02:20:08;3.10;;;0.90;;
50745;SDS011;36711;51.972;21.204;2023-05-07T02:22:42;1.70;;;1.00;;
50745;SDS011;36711;51.972;21.204;2023-05-07T02:25:11;1.20;;;1.10;;
50745;SDS011;36711;51.972;21.204;2023-05-07T02:27:40;4.20;;;1.00;;
50745;SDS011;36711;51.972;21.204;2023-05-07T02:30:09;1.70;;;0.90;;
50745;SDS011;36711;51.972;21.204;2023-05-07T02:32:39;1.50;;;1.00;;
50745;SDS011;36711;51.972;21.204;2023-05-07T02:35:09;1.60;;;0.80;;
50745;SDS011;36711;51.972;21.204;2023-05-07T02:37:42;0.80;;;0.80;;
50745;SDS011;36711;51.972;21.204;2023-05-07T02:40:11;2.70;;;1.00;;
50745;SDS011;36711;51.972;21.204;2023-05-07T02:42:40;0.80;;;0.80;;
50745;SDS011;36711;51.972;21.204;2023-05-07T02:45:09;1.30;;;0.90;;
50745;SDS011;36711;51.972;21.204;2023-05-07T02:47:39;0.80;;;0.80;;
50745;SDS011;36711;51.972;21.204;2023-05-07T02:50:08;1.20;;;1.00;;
50745;SDS011;36711;51.972;21.204;2023-05-07T02:52:39;1.30;;;0.70;;
50745;SDS011;36711;51.972;21.204;2023-05-07T02:55:08;0.70;;;0.70;;
50745;SDS011;36711;51.972;21.204;2023-05-07T02:57:37;0.80;;;0.70;;
50745;SDS011;36711;51.972;21.204;2023-05-07T03:00:10;1.10;;;0.70;;
50745;SDS011;36711;51.972;21.204;2023-05-07T03:02:40;0.60;;;0.60;;
50745;SDS011;36711;51.972;21.204;2023-05-07T03:05:09;0.60;;;0.60;;
50745;SDS011;36711;51.972;21.204;2023-05-07T03:07:38;1.80;;;0.70;;
50745;SDS011;36711;51.972;21.204;2023-05-07T03:10:08;1.20;;;0.80;;
50745;SDS011;36711;51.972;21.204;2023-05-07T03:12:38;0.70;;;0.70;;
50745;SDS011;36711;51.972;21.204;2023-05-07T03:15:08;2.10;;;1.00;;
50745;SDS011;36711;51.972;21.204;2023-05-07T03:17:37;0.70;;;0.70;;
50745;SDS011;36711;51.972;21.204;2023-05-07T03:20:06;1.60;;;0.70;;
50745;SDS011;36711;51.972;21.204;2023-05-07T03:22:36;1.00;;;0.70;;
50745;SDS011;36711;51.972;21.204;2023-05-07T03:25:05;1.50;;;0.80;;
50745;SDS011;36711;51.972;21.204;2023-05-07T03:27:35;0.90;;;0.80;;
50745;SDS011;36711;51.972;21.204;2023-05-07T03:30:04;1.10;;;1.00;;
50745;SDS011;36711;51.972;21.204;2023-05-07T03:32:33;2.50;;;0.80;;
50745;SDS011;36711;51.972;21.204;2023-05-07T03:35:02;1.00;;;0.80;;
50745;SDS011;36711;51.972;21.204;2023-05-07T03:37:31;0.70;;;0.70;;
50745;SDS011;36711;51.972;21.204;2023-05-07T03:40:00;0.70;;;0.60;;
50745;SDS011;36711;51.972;21.204;2023-05-07T03:42:29;0.80;;;0.70;;
50745;SDS011;36711;51.972;21.204;2023-05-07T03:44:58;1.00;;;0.90;;
50745;SDS011;36711;51.972;21.204;2023-05-07T03:47:29;0.70;;;0.60;;
50745;SDS011;36711;51.972;21.204;2023-05-07T03:49:59;1.20;;;0.70;;
50745;SDS011;36711;51.972;21.204;2023-05-07T03:52:28;2.00;;;0.80;;
50745;SDS011;36711;51.972;21.204;2023-05-07T03:54:57;4.50;;;0.70;;
50745;SDS011;36711;51.972;21.204;2023-05-07T03:57:26;1.20;;;0.70;;
50745;SDS011;36711;51.972;21.204;2023-05-07T03:59:55;1.10;;;0.70;;
50745;SDS011;36711;51.972;21.204;2023-05-07T04:02:24;2.40;;;0.70;;
50745;SDS011;36711;51.972;21.204;2023-05-07T04:04:53;2.80;;;0.70;;
50745;SDS011;36711;51.972;21.204;2023-05-07T04:07:23;0.80;;;0.70;;
50745;SDS011;36711;51.972;21.204;2023-05-07T04:09:51;0.60;;;0.60;;
50745;SDS011;36711;51.972;21.204;2023-05-07T04:12:20;0.80;;;0.50;;
50745;SDS011;36711;51.972;21.204;2023-05-07T04:14:49;0.50;;;0.50;;
50745;SDS011;36711;51.972;21.204;2023-05-07T04:17:18;1.30;;;0.60;;
50745;SDS011;36711;51.972;21.204;2023-05-07T04:19:47;0.70;;;0.70;;
50745;SDS011;36711;51.972;21.204;2023-05-07T04:22:16;0.60;;;0.50;;
50745;SDS011;36711;51.972;21.204;2023-05-07T04:24:45;1.30;;;0.70;;
50745;SDS011;36711;51.972;21.204;2023-05-07T04:27:14;0.80;;;0.70;;
50745;SDS011;36711;51.972;21.204;2023-05-07T04:29:43;0.50;;;0.50;;
50745;SDS011;36711;51.972;21.204;2023-05-07T04:32:15;1.00;;;0.80;;
50745;SDS011;36711;51.972;21.204;2023-05-07T04:34:44;1.00;;;0.80;;
50745;SDS011;36711;51.972;21.204;2023-05-07T04:37:13;0.70;;;0.70;;
50745;SDS011;36711;51.972;21.204;2023-05-07T04:39:42;0.50;;;0.50;;
50745;SDS011;36711;51.972;21.204;2023-05-07T04:42:14;0.60;;;0.60;;
50745;SDS011;36711;51.972;21.204;2023-05-07T04:44:43;0.70;;;0.70;;
50745;SDS011;36711;51.972;21.204;2023-05-07T04:47:12;1.20;;;0.60;;
50745;SDS011;36711;51.972;21.204;2023-05-07T04:49:41;0.80;;;0.70;;
50745;SDS011;36711;51.972;21.204;2023-05-07T04:52:10;1.00;;;0.60;;
50745;SDS011;36711;51.972;21.204;2023-05-07T04:54:38;0.70;;;0.70;;
50745;SDS011;36711;51.972;21.204;2023-05-07T04:57:07;0.70;;;0.70;;
50745;SDS011;36711;51.972;21.204;2023-05-07T04:59:36;3.70;;;0.70;;
50745;SDS011;36711;51.972;21.204;2023-05-07T05:02:04;0.90;;;0.70;;
50745;SDS011;36711;51.972;21.204;2023-05-07T05:04:33;0.70;;;0.70;;
50745;SDS011;36711;51.972;21.204;2023-05-07T05:07:02;0.70;;;0.60;;
50745;SDS011;36711;51.972;21.204;2023-05-07T05:09:34;1.20;;;0.70;;
50745;SDS011;36711;51.972;21.204;2023-05-07T05:12:03;1.30;;;0.70;;
50745;SDS011;36711;51.972;21.204;2023-05-07T05:14:32;0.70;;;0.70;;
50745;SDS011;36711;51.972;21.204;2023-05-07T05:17:01;0.80;;;0.60;;
50745;SDS011;36711;51.972;21.204;2023-05-07T05:19:29;3.40;;;0.80;;
50745;SDS011;36711;51.972;21.204;2023-05-07T05:21:58;2.80;;;1.00;;
50745;SDS011;36711;51.972;21.204;2023-05-07T05:24:30;0.80;;;0.80;;
50745;SDS011;36711;51.972;21.204;2023-05-07T05:26:58;0.50;;;0.50;;
50745;SDS011;36711;51.972;21.204;2023-05-07T05:29:31;2.30;;;0.80;;
50745;SDS011;36711;51.972;21.204;2023-05-07T05:32:00;0.70;;;0.70;;
50745;SDS011;36711;51.972;21.204;2023-05-07T05:34:29;1.10;;;0.70;;
50745;SDS011;36711;51.972;21.204;2023-05-07T05:36:58;1.80;;;0.70;;
50745;SDS011;36711;51.972;21.204;2023-05-07T05:39:27;0.70;;;0.70;;
50745;SDS011;36711;51.972;21.204;2023-05-07T05:41:56;1.00;;;0.70;;
50745;SDS011;36711;51.972;21.204;2023-05-07T05:44:24;1.90;;;0.70;;
50745;SDS011;36711;51.972;21.204;2023-05-07T05:46:53;1.10;;;0.60;;
50745;SDS011;36711;51.972;21.204;2023-05-07T05:49:27;1.20;;;1.00;;
50745;SDS011;36711;51.972;21.204;2023-05-07T05:51:56;1.10;;;0.80;;
50745;SDS011;36711;51.972;21.204;2023-05-07T05:54:25;0.90;;;0.70;;
50745;SDS011;36711;51.972;21.204;2023-05-07T05:56:54;0.90;;;0.80;;
50745;SDS011;36711;51.972;21.204;2023-05-07T05:59:23;0.70;;;0.70;;
50745;SDS011;36711;51.972;21.204;2023-05-07T06:01:51;1.30;;;0.80;;
50745;SDS011;36711;51.972;21.204;2023-05-07T06:04:20;0.70;;;0.70;;
50745;SDS011;36711;51.972;21.204;2023-05-07T06:06:49;1.10;;;0.80;;
50745;SDS011;36711;51.972;21.204;2023-05-07T06:09:18;1.40;;;0.80;;
50745;SDS011;36711;51.972;21.204;2023-05-07T06:11:46;1.70;;;0.70;;
50745;SDS011;36711;51.972;21.204;2023-05-07T06:14:15;1.10;;;0.60;;
50745;SDS011;36711;51.972;21.204;2023-05-07T06:16:44;2.50;;;0.70;;
50745;SDS011;36711;51.972;21.204;2023-05-07T06:19:13;1.20;;;0.80;;
50745;SDS011;36711;51.972;21.204;2023-05-07T06:21:42;2.30;;;0.60;;
50745;SDS011;36711;51.972;21.204;2023-05-07T06:24:10;0.80;;;0.50;;
50745;SDS011;36711;51.972;21.204;2023-05-07T06:26:39;1.00;;;0.90;;
50745;SDS011;36711;51.972;21.204;2023-05-07T06:29:08;0.60;;;0.60;;
50745;SDS011;36711;51.972;21.204;2023-05-07T06:31:37;0.50;;;0.50;;
50745;SDS011;36711;51.972;21.204;2023-05-07T06:34:05;0.90;;;0.60;;
50745;SDS011;36711;51.972;21.204;2023-05-07T06:36:34;0.60;;;0.60;;
50745;SDS011;36711;51.972;21.204;2023-05-07T06:39:03;0.60;;;0.60;;
50745;SDS011;36711;51.972;21.204;2023-05-07T06:41:32;2.00;;;0.90;;
50745;SDS011;36711;51.972;21.204;2023-05-07T06:44:02;2.70;;;1.00;;
50745;SDS011;36711;51.972;21.204;2023-05-07T06:46:31;1.00;;;0.80;;
50745;SDS011;36711;51.972;21.204;2023-05-07T06:48:59;2.20;;;0.90;;
50745;SDS011;36711;51.972;21.204;2023-05-07T06:51:28;1.10;;;1.00;;
50745;SDS011;36711;51.972;21.204;2023-05-07T06:53:57;1.60;;;0.80;;
50745;SDS011;36711;51.972;21.204;2023-05-07T06:56:26;1.30;;;0.90;;
50745;SDS011;36711;51.972;21.204;2023-05-07T06:58:54;2.90;;;0.90;;
50745;SDS011;36711;51.972;21.204;2023-05-07T07:01:23;0.90;;;0.70;;
50745;SDS011;36711;51.972;21.204;2023-05-07T07:03:52;1.30;;;1.00;;
50745;SDS011;36711;51.972;21.204;2023-05-07T07:06:21;3.00;;;0.90;;
50745;SDS011;36711;51.972;21.204;2023-05-07T07:08:49;0.90;;;0.70;;
50745;SDS011;36711;51.972;21.204;2023-05-07T07:11:18;1.00;;;0.70;;
50745;SDS011;36711;51.972;21.204;2023-05-07T07:13:47;0.60;;;0.60;;
50745;SDS011;36711;51.972;21.204;2023-05-07T07:16:16;2.20;;;0.80;;
50745;SDS011;36711;51.972;21.204;2023-05-07T07:18:45;2.40;;;1.10;;
50745;SDS011;36711;51.972;21.204;2023-05-07T07:21:14;1.00;;;0.80;;
50745;SDS011;36711;51.972;21.204;2023-05-07T07:23:43;1.50;;;0.70;;
50745;SDS011;36711;51.972;21.204;2023-05-07T07:26:12;1.10;;;0.60;;
50745;SDS011;36711;51.972;21.204;2023-05-07T07:28:44;0.90;;;0.80;;
50745;SDS011;36711;51.972;21.204;2023-05-07T07:31:13;2.20;;;0.70;;
50745;SDS011;36711;51.972;21.204;2023-05-07T07:33:42;0.80;;;0.60;;
50745;SDS011;36711;51.972;21.204;2023-05-07T07:36:10;1.00;;;0.60;;
50745;SDS011;36711;51.972;21.204;2023-05-07T07:38:39;2.90;;;0.70;;
50745;SDS011;36711;51.972;21.204;2023-05-07T07:41:08;0.70;;;0.70;;
50745;SDS011;36711;51.972;21.204;2023-05-07T07:43:37;0.80;;;0.80;;
50745;SDS011;36711;51.972;21.204;2023-05-07T07:46:06;0.70;;;0.70;;
50745;SDS011;36711;51.972;21.204;2023-05-07T07:48:35;1.20;;;0.70;;
50745;SDS011;36711;51.972;21.204;2023-05-07T07:51:03;0.90;;;0.70;;
50745;SDS011;36711;51.972;21.204;2023-05-07T07:53:32;2.10;;;1.00;;
50745;SDS011;36711;51.972;21.204;2023-05-07T07:56:01;1.80;;;1.00;;
50745;SDS011;36711;51.972;21.204;2023-05-07T07:58:33;1.40;;;0.80;;
50745;SDS011;36711;51.972;21.204;2023-05-07T08:01:04;1.00;;;0.90;;
50745;SDS011;36711;51.972;21.204;2023-05-07T08:03:32;0.90;;;0.70;;
50745;SDS011;36711;51.972;21.204;2023-05-07T08:06:01;1.50;;;1.30;;
50745;SDS011;36711;51.972;21.204;2023-05-07T08:08:30;1.70;;;1.40;;
50745;SDS011;36711;51.972;21.204;2023-05-07T08:10:59;2.80;;;1.60;;
50745;SDS011;36711;51.972;21.204;2023-05-07T08:13:28;2.00;;;1.60;;
50745;SDS011;36711;51.972;21.204;2023-05-07T08:15:56;2.60;;;1.70;;
50745;SDS011;36711;51.972;21.204;2023-05-07T08:18:25;1.70;;;1.10;;
50745;SDS011;36711;51.972;21.204;2023-05-07T08:20:55;1.70;;;1.00;;
50745;SDS011;36711;51.972;21.204;2023-05-07T08:23:24;4.50;;;1.20;;
50745;SDS011;36711;51.972;21.204;2023-05-07T08:25:53;1.40;;;1.10;;
50745;SDS011;36711;51.972;21.204;2023-05-07T08:28:21;4.50;;;1.60;;
50745;SDS011;36711;51.972;21.204;2023-05-07T08:30:50;3.60;;;2.00;;
50745;SDS011;36711;51.972;21.204;2023-05-07T08:33:19;1.80;;;1.40;;
50745;SDS011;36711;51.972;21.204;2023-05-07T08:35:48;1.50;;;1.10;;
50745;SDS011;36711;51.972;21.204;2023-05-07T08:38:17;1.50;;;1.20;;
50745;SDS011;36711;51.972;21.204;2023-05-07T08:40:46;1.70;;;1.30;;
50745;SDS011;36711;51.972;21.204;2023-05-07T08:43:15;2.50;;;1.10;;
50745;SDS011;36711;51.972;21.204;2023-05-07T08:45:45;1.50;;;1.00;;
50745;SDS011;36711;51.972;21.204;2023-05-07T08:48:15;2.00;;;1.20;;
50745;SDS011;36711;51.972;21.204;2023-05-07T08:50:44;2.30;;;0.90;;
50745;SDS011;36711;51.972;21.204;2023-05-07T08:53:13;2.50;;;1.40;;
50745;SDS011;36711;51.972;21.204;2023-05-07T08:55:43;1.30;;;1.20;;
50745;SDS011;36711;51.972;21.204;2023-05-07T08:58:12;3.80;;;1.40;;
50745;SDS011;36711;51.972;21.204;2023-05-07T09:00:41;1.70;;;0.90;;
50745;SDS011;36711;51.972;21.204;2023-05-07T09:03:10;1.70;;;1.10;;
50745;SDS011;36711;51.972;21.204;2023-05-07T09:05:41;1.30;;;0.90;;
50745;SDS011;36711;51.972;21.204;2023-05-07T09:08:14;0.90;;;0.80;;
50745;SDS011;36711;51.972;21.204;2023-05-07T09:10:43;1.20;;;0.90;;
50745;SDS011;36711;51.972;21.204;2023-05-07T09:13:12;1.60;;;1.20;;
50745;SDS011;36711;51.972;21.204;2023-05-07T09:15:43;2.30;;;1.10;;
50745;SDS011;36711;51.972;21.204;2023-05-07T09:18:12;1.00;;;0.90;;
50745;SDS011;36711;51.972;21.204;2023-05-07T09:20:44;2.10;;;1.00;;
50745;SDS011;36711;51.972;21.204;2023-05-07T09:23:13;3.20;;;0.80;;
50745;SDS011;36711;51.972;21.204;2023-05-07T09:25:42;1.40;;;1.10;;
50745;SDS011;36711;51.972;21.204;2023-05-07T09:28:11;1.20;;;1.00;;
50745;SDS011;36711;51.972;21.204;2023-05-07T09:30:40;2.30;;;1.50;;
50745;SDS011;36711;51.972;21.204;2023-05-07T09:33:09;2.20;;;1.30;;
50745;SDS011;36711;51.972;21.204;2023-05-07T09:35:37;1.20;;;1.10;;
50745;SDS011;36711;51.972;21.204;2023-05-07T09:38:06;3.30;;;1.60;;
50745;SDS011;36711;51.972;21.204;2023-05-07T09:40:36;6.60;;;1.20;;
50745;SDS011;36711;51.972;21.204;2023-05-07T09:43:08;1.60;;;1.10;;
50745;SDS011;36711;51.972;21.204;2023-05-07T09:45:37;1.00;;;0.90;;
50745;SDS011;36711;51.972;21.204;2023-05-07T09:48:07;1.10;;;1.00;;
50745;SDS011;36711;51.972;21.204;2023-05-07T09:50:36;0.90;;;0.80;;
50745;SDS011;36711;51.972;21.204;2023-05-07T09:53:09;0.70;;;0.70;;
50745;SDS011;36711;51.972;21.204;2023-05-07T09:55:38;1.20;;;0.90;;
50745;SDS011;36711;51.972;21.204;2023-05-07T09:58:07;1.60;;;0.90;;
50745;SDS011;36711;51.972;21.204;2023-05-07T10:00:38;2.40;;;1.00;;
50745;SDS011;36711;51.972;21.204;2023-05-07T10:03:09;1.30;;;0.80;;
50745;SDS011;36711;51.972;21.204;2023-05-07T10:05:38;1.20;;;1.00;;
50745;SDS011;36711;51.972;21.204;2023-05-07T10:08:07;0.90;;;0.80;;
50745;SDS011;36711;51.972;21.204;2023-05-07T10:10:36;3.20;;;1.40;;
50745;SDS011;36711;51.972;21.204;2023-05-07T10:13:06;2.00;;;1.10;;
50745;SDS011;36711;51.972;21.204;2023-05-07T10:18:08;2.20;;;1.30;;
50745;SDS011;36711;51.972;21.204;2023-05-07T10:20:37;5.10;;;1.40;;
50745;SDS011;36711;51.972;21.204;2023-05-07T10:23:07;3.60;;;1.40;;
50745;SDS011;36711;51.972;21.204;2023-05-07T10:25:38;5.30;;;2.00;;
50745;SDS011;36711;51.972;21.204;2023-05-07T10:28:07;3.70;;;1.40;;
50745;SDS011;36711;51.972;21.204;2023-05-07T10:30:45;3.30;;;1.20;;
50745;SDS011;36711;51.972;21.204;2023-05-07T10:33:15;2.80;;;1.30;;
50745;SDS011;36711;51.972;21.204;2023-05-07T10:35:45;3.00;;;1.00;;
50745;SDS011;36711;51.972;21.204;2023-05-07T10:38:15;6.90;;;2.20;;
50745;SDS011;36711;51.972;21.204;2023-05-07T10:40:44;3.10;;;2.10;;
50745;SDS011;36711;51.972;21.204;2023-05-07T10:43:15;4.00;;;1.60;;
50745;SDS011;36711;51.972;21.204;2023-05-07T10:45:49;2.40;;;1.60;;
50745;SDS011;36711;51.972;21.204;2023-05-07T10:48:33;3.50;;;1.30;;
50745;SDS011;36711;51.972;21.204;2023-05-07T10:51:20;3.40;;;1.20;;
50745;SDS011;36711;51.972;21.204;2023-05-07T10:54:17;1.10;;;1.00;;
50745;SDS011;36711;51.972;21.204;2023-05-07T10:56:41;2.70;;;1.10;;
50745;SDS011;36711;51.972;21.204;2023-05-07T11:04:32;3.50;;;1.40;;
50745;SDS011;36711;51.972;21.204;2023-05-07T11:15:11;1.20;;;1.10;;
50745;SDS011;36711;51.972;21.204;2023-05-07T11:17:54;2.50;;;1.20;;
50745;SDS011;36711;51.972;21.204;2023-05-07T11:28:29;3.30;;;0.90;;
50745;SDS011;36711;51.972;21.204;2023-05-07T11:30:59;4.30;;;1.00;;
50745;SDS011;36711;51.972;21.204;2023-05-07T11:33:28;1.10;;;1.00;;
50745;SDS011;36711;51.972;21.204;2023-05-07T11:35:57;1.00;;;0.90;;
50745;SDS011;36711;51.972;21.204;2023-05-07T11:38:28;1.10;;;1.00;;
50745;SDS011;36711;51.972;21.204;2023-05-07T11:40:58;2.40;;;1.00;;
50745;SDS011;36711;51.972;21.204;2023-05-07T11:43:31;3.80;;;1.20;;
50745;SDS011;36711;51.972;21.204;2023-05-07T11:46:07;3.80;;;1.10;;
50745;SDS011;36711;51.972;21.204;2023-05-07T11:48:37;1.20;;;1.00;;
50745;SDS011;36711;51.972;21.204;2023-05-07T11:51:06;0.80;;;0.80;;
50745;SDS011;36711;51.972;21.204;2023-05-07T11:53:38;1.10;;;0.90;;
50745;SDS011;36711;51.972;21.204;2023-05-07T11:56:08;1.50;;;1.00;;
50745;SDS011;36711;51.972;21.204;2023-05-07T11:58:37;1.60;;;1.10;;
50745;SDS011;36711;51.972;21.204;2023-05-07T12:01:09;3.10;;;1.00;;
50745;SDS011;36711;51.972;21.204;2023-05-07T12:03:41;1.70;;;1.10;;
50745;SDS011;36711;51.972;21.204;2023-05-07T12:06:12;3.30;;;1.70;;
50745;SDS011;36711;51.972;21.204;2023-05-07T12:08:41;5.70;;;2.40;;
50745;SDS011;36711;51.972;21.204;2023-05-07T12:11:14;1.30;;;1.10;;
50745;SDS011;36711;51.972;21.204;2023-05-07T12:13:43;3.90;;;1.10;;
50745;SDS011;36711;51.972;21.204;2023-05-07T12:16:12;1.50;;;1.10;;
50745;SDS011;36711;51.972;21.204;2023-05-07T12:18:41;2.30;;;1.20;;
50745;SDS011;36711;51.972;21.204;2023-05-07T12:21:09;1.80;;;1.10;;
50745;SDS011;36711;51.972;21.204;2023-05-07T12:23:39;1.10;;;1.00;;
50745;SDS011;36711;51.972;21.204;2023-05-07T12:26:08;1.70;;;0.90;;
50745;SDS011;36711;51.972;21.204;2023-05-07T12:28:37;1.10;;;1.00;;
50745;SDS011;36711;51.972;21.204;2023-05-07T12:31:07;1.40;;;1.10;;
50745;SDS011;36711;51.972;21.204;2023-05-07T12:33:36;1.60;;;1.20;;
50745;SDS011;36711;51.972;21.204;2023-05-07T12:36:05;4.30;;;2.00;;
50745;SDS011;36711;51.972;21.204;2023-05-07T12:38:35;4.70;;;2.60;;
50745;SDS011;36711;51.972;21.204;2023-05-07T12:41:05;3.50;;;1.20;;
50745;SDS011;36711;51.972;21.204;2023-05-07T12:43:35;4.50;;;2.10;;
50745;SDS011;36711;51.972;21.204;2023-05-07T12:46:05;3.50;;;1.80;;
50745;SDS011;36711;51.972;21.204;2023-05-07T12:48:38;2.20;;;1.50;;
50745;SDS011;36711;51.972;21.204;2023-05-07T12:51:07;2.10;;;1.30;;
50745;SDS011;36711;51.972;21.204;2023-05-07T12:53:41;1.80;;;1.10;;
50745;SDS011;36711;51.972;21.204;2023-05-07T12:56:15;2.00;;;1.10;;
50745;SDS011;36711;51.972;21.204;2023-05-07T12:58:44;1.60;;;1.10;;
50745;SDS011;36711;51.972;21.204;2023-05-07T13:01:13;1.70;;;1.50;;
50745;SDS011;36711;51.972;21.204;2023-05-07T13:03:47;4.60;;;1.50;;
50745;SDS011;36711;51.972;21.204;2023-05-07T13:06:16;1.60;;;1.30;;
50745;SDS011;36711;51.972;21.204;2023-05-07T13:08:45;3.80;;;2.20;;
50745;SDS011;36711;51.972;21.204;2023-05-07T13:11:14;2.90;;;1.90;;
50745;SDS011;36711;51.972;21.204;2023-05-07T13:13:42;2.20;;;1.60;;
50745;SDS011;36711;51.972;21.204;2023-05-07T13:16:11;2.50;;;1.70;;
50745;SDS011;36711;51.972;21.204;2023-05-07T13:18:40;3.20;;;1.70;;
50745;SDS011;36711;51.972;21.204;2023-05-07T13:21:12;3.10;;;1.30;;
50745;SDS011;36711;51.972;21.204;2023-05-07T13:23:42;1.30;;;1.00;;
50745;SDS011;36711;51.972;21.204;2023-05-07T13:26:10;1.80;;;1.20;;
50745;SDS011;36711;51.972;21.204;2023-05-07T13:28:53;1.70;;;0.90;;
50745;SDS011;36711;51.972;21.204;2023-05-07T13:31:23;4.20;;;2.40;;
50745;SDS011;36711;51.972;21.204;2023-05-07T13:33:52;8.70;;;4.10;;
50745;SDS011;36711;51.972;21.204;2023-05-07T13:36:21;2.80;;;2.00;;
50745;SDS011;36711;51.972;21.204;2023-05-07T13:38:50;4.40;;;2.70;;
50745;SDS011;36711;51.972;21.204;2023-05-07T13:41:20;3.20;;;2.00;;
50745;SDS011;36711;51.972;21.204;2023-05-07T13:43:49;3.10;;;1.80;;
50745;SDS011;36711;51.972;21.204;2023-05-07T13:46:18;3.50;;;1.50;;
50745;SDS011;36711;51.972;21.204;2023-05-07T13:48:47;2.60;;;1.50;;
50745;SDS011;36711;51.972;21.204;2023-05-07T13:51:16;2.30;;;1.60;;
50745;SDS011;36711;51.972;21.204;2023-05-07T13:53:45;2.30;;;1.30;;
50745;SDS011;36711;51.972;21.204;2023-05-07T13:56:14;3.00;;;1.50;;
50745;SDS011;36711;51.972;21.204;2023-05-07T13:58:43;1.90;;;1.00;;
50745;SDS011;36711;51.972;21.204;2023-05-07T14:01:26;2.50;;;1.10;;
50745;SDS011;36711;51.972;21.204;2023-05-07T14:03:55;2.60;;;1.70;;
50745;SDS011;36711;51.972;21.204;2023-05-07T14:06:25;2.30;;;1.30;;
50745;SDS011;36711;51.972;21.204;2023-05-07T14:08:54;1.40;;;1.30;;
50745;SDS011;36711;51.972;21.204;2023-05-07T14:11:23;2.20;;;1.10;;
50745;SDS011;36711;51.972;21.204;2023-05-07T14:13:52;2.00;;;1.00;;
50745;SDS011;36711;51.972;21.204;2023-05-07T14:16:20;1.50;;;1.10;;
50745;SDS011;36711;51.972;21.204;2023-05-07T14:18:49;2.30;;;1.10;;
50745;SDS011;36711;51.972;21.204;2023-05-07T14:21:18;3.90;;;1.20;;
50745;SDS011;36711;51.972;21.204;2023-05-07T14:23:47;2.60;;;1.40;;
50745;SDS011;36711;51.972;21.204;2023-05-07T14:26:16;2.10;;;1.20;;
50745;SDS011;36711;51.972;21.204;2023-05-07T14:28:45;1.70;;;1.10;;
50745;SDS011;36711;51.972;21.204;2023-05-07T14:31:15;1.30;;;0.90;;
50745;SDS011;36711;51.972;21.204;2023-05-07T14:33:44;1.70;;;1.00;;
50745;SDS011;36711;51.972;21.204;2023-05-07T14:36:13;3.50;;;1.10;;
50745;SDS011;36711;51.972;21.204;2023-05-07T14:38:41;1.80;;;1.30;;
50745;SDS011;36711;51.972;21.204;2023-05-07T14:41:10;4.30;;;1.10;;
50745;SDS011;36711;51.972;21.204;2023-05-07T14:43:39;2.20;;;1.10;;
50745;SDS011;36711;51.972;21.204;2023-05-07T14:46:08;1.20;;;1.10;;
50745;SDS011;36711;51.972;21.204;2023-05-07T14:48:37;1.10;;;0.80;;
50745;SDS011;36711;51.972;21.204;2023-05-07T14:51:06;2.30;;;0.80;;
50745;SDS011;36711;51.972;21.204;2023-05-07T14:53:35;3.50;;;1.50;;
50745;SDS011;36711;51.972;21.204;2023-05-07T14:56:04;4.40;;;1.00;;
50745;SDS011;36711;51.972;21.204;2023-05-07T14:58:34;1.10;;;0.60;;
50745;SDS011;36711;51.972;21.204;2023-05-07T15:01:03;1.70;;;1.10;;
50745;SDS011;36711;51.972;21.204;2023-05-07T15:03:32;3.10;;;1.00;;
50745;SDS011;36711;51.972;21.204;2023-05-07T15:06:01;2.90;;;0.90;;
50745;SDS011;36711;51.972;21.204;2023-05-07T15:08:30;1.90;;;0.90;;
50745;SDS011;36711;51.972;21.204;2023-05-07T15:10:59;0.90;;;0.70;;
50745;SDS011;36711;51.972;21.204;2023-05-07T15:13:28;0.70;;;0.70;;
50745;SDS011;36711;51.972;21.204;2023-05-07T15:15:57;1.00;;;0.90;;
50745;SDS011;36711;51.972;21.204;2023-05-07T15:18:26;3.90;;;0.80;;
50745;SDS011;36711;51.972;21.204;2023-05-07T15:20:55;2.60;;;0.90;;
50745;SDS011;36711;51.972;21.204;2023-05-07T15:23:24;0.80;;;0.70;;
50745;SDS011;36711;51.972;21.204;2023-05-07T15:25:53;3.00;;;1.10;;
50745;SDS011;36711;51.972;21.204;2023-05-07T15:28:21;3.50;;;0.90;;
50745;SDS011;36711;51.972;21.204;2023-05-07T15:30:50;1.50;;;0.80;;
50745;SDS011;36711;51.972;21.204;2023-05-07T15:33:20;2.00;;;1.10;;
50745;SDS011;36711;51.972;21.204;2023-05-07T15:35:49;2.30;;;1.10;;
50745;SDS011;36711;51.972;21.204;2023-05-07T15:38:18;2.80;;;0.70;;
50745;SDS011;36711;51.972;21.204;2023-05-07T15:40:47;1.10;;;0.70;;
50745;SDS011;36711;51.972;21.204;2023-05-07T15:43:16;1.20;;;1.10;;
50745;SDS011;36711;51.972;21.204;2023-05-07T15:45:45;0.70;;;0.60;;
50745;SDS011;36711;51.972;21.204;2023-05-07T15:48:14;1.90;;;1.10;;
50745;SDS011;36711;51.972;21.204;2023-05-07T15:50:43;3.00;;;1.10;;
50745;SDS011;36711;51.972;21.204;2023-05-07T15:53:11;2.00;;;1.00;;
50745;SDS011;36711;51.972;21.204;2023-05-07T15:55:41;1.60;;;0.70;;
50745;SDS011;36711;51.972;21.204;2023-05-07T15:58:11;1.20;;;0.50;;
50745;SDS011;36711;51.972;21.204;2023-05-07T16:00:40;0.80;;;0.70;;
50745;SDS011;36711;51.972;21.204;2023-05-07T16:03:09;2.50;;;0.80;;
50745;SDS011;36711;51.972;21.204;2023-05-07T16:05:38;2.30;;;0.60;;
50745;SDS011;36711;51.972;21.204;2023-05-07T16:08:07;0.80;;;0.60;;
50745;SDS011;36711;51.972;21.204;2023-05-07T16:10:36;1.50;;;0.80;;
50745;SDS011;36711;51.972;21.204;2023-05-07T16:13:05;1.40;;;0.90;;
50745;SDS011;36711;51.972;21.204;2023-05-07T16:15:34;1.80;;;0.70;;
50745;SDS011;36711;51.972;21.204;2023-05-07T16:18:03;1.70;;;0.80;;
50745;SDS011;36711;51.972;21.204;2023-05-07T16:20:32;4.10;;;1.10;;
50745;SDS011;36711;51.972;21.204;2023-05-07T16:23:01;1.80;;;0.70;;